Time;durP1;ratioP1;P1;durP2;ratioP2;P2;SDS_P1;SDS_P2;PMS_P1;PMS_P2;Temp;Humidity;BMP_temperature;BMP_pressure;BME280_temperature;BME280_humidity;BME280_pressure;Samples;Min_cycle;Max_cycle;Signal;HPM_P1;HPM_P2
2024/01/26 08:09:21;;;;;;;;;;;;;;;9.24;91.74;100072.24;106885;1253;61298;-83
2024/01/26 08:11:48;;;;;;;;;;;;;;;9.21;91.98;100073.35;106391;1254;61163;-83
2024/01/26 08:14:28;;;;;;;;;;;;;;;9.14;92.95;100076.16;106704;1257;73421;-82
2024/01/26 08:17:08;;;;;;;;;;;;;;;9.12;93.55;100079.94;106825;1253;68444;-83
2024/01/26 08:19:48;;;;;;;;;;;;;;;9.18;93.58;100084.71;106651;1252;72720;-83
2024/01/26 08:22:16;;;;;;;;;;;;;;;9.22;93.08;100083.94;106680;1253;61231;-83
2024/01/26 08:24:50;;;;;;;;;;;;;;;9.27;92.71;100088.65;106503;1255;61338;-83
2024/01/26 08:27:25;;;;;;;;;;;;;;;9.27;93.01;100091.77;106582;1256;74675;-83
2024/01/26 08:29:53;;;;;;;;;;;;;;;9.35;93.01;100090.30;106588;1254;67539;-83
2024/01/26 08:32:27;;;;;;;;;;;;;;;9.38;93.21;100093.73;106574;1253;74424;-83
2024/01/26 08:35:00;;;;;;;;;;;;;;;9.46;93.31;100092.82;106394;1254;61263;-83
2024/01/26 08:37:35;;;;;;;;;;;;;;;9.55;93.19;100092.23;106473;1256;61320;-83
2024/01/26 08:40:06;;;;;;;;;;;;;;;9.60;93.07;100096.79;106430;1253;75072;-83
2024/01/26 08:42:39;;;;;;;;;;;;;;;9.59;93.79;100101.90;106516;1253;67879;-83
2024/01/26 08:45:19;;;;;;;;;;;;;;;9.70;93.63;100103.16;106598;1254;71381;-83
2024/01/26 08:47:53;;;;;;;;;;;;;;;9.80;93.24;100104.68;106359;1253;61814;-83
2024/01/26 08:50:21;;;;;;;;;;;;;;;9.78;93.88;100105.40;106492;1253;61350;-83
2024/01/26 08:52:49;;;;;;;;;;;;;;;9.79;94.15;100109.77;106473;1257;76613;-83
2024/01/26 08:55:23;;;;;;;;;;;;;;;9.81;94.24;100112.27;106439;1253;68472;-83
2024/01/26 08:57:56;;;;;;;;;;;;;;;9.87;94.04;100109.27;106452;1253;73592;-83
2024/01/26 09:00:24;;;;;;;;;;;;;;;9.93;93.90;100110.11;106518;1255;61235;-83
2024/01/26 09:02:58;;;;;;;;;;;;;;;9.99;92.72;100113.57;106493;1254;61251;-83
2024/01/26 09:05:38;;;;;;;;;;;;;;;10.14;90.80;100110.99;106516;1253;76757;-83
2024/01/26 09:08:06;;;;;;;;;;;;;;;10.20;89.82;100111.61;106431;1253;69606;-83
2024/01/26 09:10:39;;;;;;;;;;;;;;;10.18;89.53;100108.84;106539;1254;73196;-83
2024/01/26 09:13:07;;;;;;;;;;;;;;;10.25;89.22;100108.85;106497;1253;61216;-83
2024/01/26 09:15:35;;;;;;;;;;;;;;;10.30;88.88;100114.95;106600;1253;61912;-83
2024/01/26 09:18:02;;;;;;;;;;;;;;;10.45;87.90;100112.31;106694;1253;75533;-83
2024/01/26 09:20:36;;;;;;;;;;;;;;;10.52;87.04;100118.48;106560;1253;70673;-83
2024/01/26 09:23:18;;;;;;;;;;;;;;;10.45;86.62;100116.68;106811;1253;75008;-83
2024/01/26 09:25:45;;;;;;;;;;;;;;;10.55;85.77;100120.90;106611;1253;61272;-83
2024/01/26 09:28:13;;;;;;;;;;;;;;;10.51;85.89;100115.42;106543;1253;61349;-83
2024/01/26 09:30:47;;;;;;;;;;;;;;;10.52;86.08;100120.50;106515;1253;74580;-83
2024/01/26 09:33:21;;;;;;;;;;;;;;;10.51;86.30;100120.07;106426;1257;69335;-83
2024/01/26 09:35:50;;;;;;;;;;;;;;;10.39;86.93;100127.05;106375;1257;74687;-84
2024/01/26 09:38:18;;;;;;;;;;;;;;;10.24;88.41;100125.06;106594;1252;61837;-84
2024/01/26 09:40:52;;;;;;;;;;;;;;;10.27;88.35;100126.33;106519;1253;61745;-83
2024/01/26 09:43:25;;;;;;;;;;;;;;;10.21;88.72;100125.59;106424;1253;77005;-84
2024/01/26 09:45:53;;;;;;;;;;;;;;;10.19;88.98;100126.58;106670;1253;69761;-84
2024/01/26 09:48:27;;;;;;;;;;;;;;;10.30;88.85;100126.77;106573;1253;73888;-83
2024/01/26 09:51:07;;;;;;;;;;;;;;;10.37;88.49;100124.39;106455;1257;61515;-84
2024/01/26 09:53:41;;;;;;;;;;;;;;;10.14;90.27;100124.05;106295;1254;61199;-84
2024/01/26 09:56:09;;;;;;;;;;;;;;;10.17;90.42;100122.17;106333;1255;76800;-83
2024/01/26 09:58:42;;;;;;;;;;;;;;;10.11;90.92;100129.42;106481;1253;70318;-84
2024/01/26 10:01:23;;;;;;;;;;;;;;;10.10;91.19;100128.34;106489;1253;72692;-83
2024/01/26 10:03:52;;;;;;;;;;;;;;;10.20;90.75;100130.73;106606;1253;62392;-83
2024/01/26 10:06:26;;;;;;;;;;;;;;;10.25;90.48;100132.64;106549;1253;61950;-84
2024/01/26 10:09:08;;;;;;;;;;;;;;;10.18;91.20;100137.45;106341;1257;73484;-83
2024/01/26 10:11:43;;;;;;;;;;;;;;;10.17;91.70;100139.65;106748;1252;69431;-81
2024/01/26 10:14:24;;;;;;;;;;;;;;;10.04;92.98;100134.55;106667;1253;72708;-81
2024/01/26 10:16:59;;;;;;;;;;;;;;;10.16;92.83;100135.77;106734;1255;61115;-83
2024/01/26 10:19:39;;;;;;;;;;;;;;;10.19;91.84;100132.96;106611;1253;61238;-83
2024/01/26 10:22:20;;;;;;;;;;;;;;;10.19;92.33;100137.50;106579;1256;73471;-83
2024/01/26 10:24:54;;;;;;;;;;;;;;;10.12;93.09;100141.91;106487;1258;67664;-83
2024/01/26 10:27:28;;;;;;;;;;;;;;;10.20;92.09;100143.66;106607;1252;73324;-83
2024/01/26 10:30:10;;;;;;;;;;;;;;;10.29;91.33;100143.73;106431;1253;61244;-84
2024/01/26 10:32:49;;;;;;;;;;;;;;;10.43;90.54;100141.71;106592;1253;61210;-84
2024/01/26 10:35:26;;;;;;;;;;;;;;;10.49;90.70;100145.83;106583;1257;73969;-83
2024/01/26 10:38:06;;;;;;;;;;;;;;;10.64;89.91;100144.98;106363;1253;71384;-83
2024/01/26 10:40:49;;;;;;;;;;;;;;;10.68;89.13;100146.81;106381;1253;74083;-82
2024/01/26 10:43:29;;;;;;;;;;;;;;;10.63;89.29;100149.30;106472;1253;61264;-83
2024/01/26 10:46:06;;;;;;;;;;;;;;;10.66;88.90;100148.73;106430;1255;61167;-83
2024/01/26 10:48:40;;;;;;;;;;;;;;;10.68;88.62;100152.48;106421;1253;74441;-83
2024/01/26 10:51:08;;;;;;;;;;;;;;;10.70;88.05;100150.44;106527;1257;69532;-83
2024/01/26 10:53:43;;;;;;;;;;;;;;;10.61;88.04;100155.50;106535;1253;75009;-84
2024/01/26 10:56:17;;;;;;;;;;;;;;;10.53;88.36;100155.08;106472;1253;61298;-82
2024/01/26 10:58:44;;;;;;;;;;;;;;;10.65;87.76;100152.56;106441;1253;61446;-83
2024/01/26 11:01:24;;;;;;;;;;;;;;;10.84;86.46;100153.86;106503;1253;77178;-83
2024/01/26 11:04:04;;;;;;;;;;;;;;;10.90;86.25;100153.04;106540;1253;69783;-83
2024/01/26 11:06:37;;;;;;;;;;;;;;;10.89;86.35;100153.27;106368;1252;74473;-83
2024/01/26 11:09:19;;;;;;;;;;;;;;;10.91;87.21;100157.02;106378;1253;61317;-83
2024/01/26 11:11:53;;;;;;;;;;;;;;;11.03;87.06;100151.32;106486;1253;61325;-84
2024/01/26 11:14:33;;;;;;;;;;;;;;;11.16;86.52;100149.38;106712;1252;76792;-83
2024/01/26 11:17:16;;;;;;;;;;;;;;;11.27;84.97;100149.31;106707;1253;67324;-83
2024/01/26 11:19:55;;;;;;;;;;;;;;;11.38;83.34;100150.72;106569;1257;74807;-83
2024/01/26 11:22:37;;;;;;;;;;;;;;;11.43;82.00;100150.88;106557;1253;61249;-83
2024/01/26 11:25:27;;;;;;;;;;;;;;;11.33;81.69;100152.20;106457;1257;61214;-84
2024/01/26 11:28:01;;;;;;;;;;;;;;;11.27;81.41;100155.49;106500;1257;76723;-83
2024/01/26 11:30:43;;;;;;;;;;;;;;;11.27;80.57;100162.29;106639;1251;71527;-83
2024/01/26 11:33:23;;;;;;;;;;;;;;;11.34;79.85;100170.01;106366;1253;73842;-83
2024/01/26 11:36:11;;;;;;;;;;;;;;;11.43;78.19;100172.75;106582;1253;61489;-83
2024/01/26 11:38:55;;;;;;;;;;;;;;;11.41;77.13;100174.20;106799;1253;61135;-83
2024/01/26 11:41:29;;;;;;;;;;;;;;;11.19;77.16;100177.72;106339;1255;75400;-83
2024/01/26 11:44:03;;;;;;;;;;;;;;;11.10;77.12;100180.63;106352;1253;70251;-83
2024/01/26 11:46:43;;;;;;;;;;;;;;;11.05;76.87;100177.23;106479;1253;74855;-83
2024/01/26 11:49:23;;;;;;;;;;;;;;;10.96;76.20;100183.70;106352;1253;61571;-83
2024/01/26 11:51:57;;;;;;;;;;;;;;;10.95;76.13;100183.33;106569;1253;62062;-83
2024/01/26 11:54:30;;;;;;;;;;;;;;;10.84;76.25;100188.14;106411;1252;75116;-83
2024/01/26 11:57:10;;;;;;;;;;;;;;;10.70;77.12;100191.86;106524;1253;70930;-83
2024/01/26 11:59:51;;;;;;;;;;;;;;;10.79;76.96;100195.62;106396;1255;75200;-82
2024/01/26 12:02:25;;;;;;;;;;;;;;;10.87;76.09;100196.98;106485;1253;61189;-84
2024/01/26 12:05:01;;;;;;;;;;;;;;;10.69;76.78;100196.80;106530;1253;61298;-83
2024/01/26 12:07:41;;;;;;;;;;;;;;;10.65;77.15;100197.44;106584;1256;76586;-83
2024/01/26 12:10:20;;;;;;;;;;;;;;;10.53;77.94;100200.91;106548;1254;69799;-82
2024/01/26 12:12:50;;;;;;;;;;;;;;;10.46;77.84;100206.82;106416;1253;74682;-83
2024/01/26 12:15:31;;;;;;;;;;;;;;;10.43;78.07;100213.73;106680;1253;61201;-82
2024/01/26 12:18:14;;;;;;;;;;;;;;;10.48;78.37;100216.64;108339;1253;113218;-82
2024/01/26 12:20:58;;;;;;;;;;;;;;;10.67;77.30;100216.88;106410;1253;76382;-82
2024/01/26 12:23:26;;;;;;;;;;;;;;;10.86;76.04;100218.14;107076;1254;70863;-82
2024/01/26 12:26:06;;;;;;;;;;;;;;;10.76;76.80;100216.80;108879;1253;74697;-82
2024/01/26 12:28:46;;;;;;;;;;;;;;;10.78;77.13;100219.34;106482;1257;61344;-82
2024/01/26 12:31:21;;;;;;;;;;;;;;;10.79;77.03;100229.61;106377;1253;61223;-82
2024/01/26 12:33:55;;;;;;;;;;;;;;;10.70;77.94;100235.16;106665;1253;75334;-84
2024/01/26 12:36:35;;;;;;;;;;;;;;;10.78;77.03;100235.15;106556;1253;70493;-83
2024/01/26 12:39:15;;;;;;;;;;;;;;;10.80;76.16;100239.14;106648;1254;74036;-83
2024/01/26 12:41:48;;;;;;;;;;;;;;;10.82;75.46;100235.23;106495;1253;61307;-84
2024/01/26 12:44:22;;;;;;;;;;;;;;;10.82;74.92;100241.47;106759;1253;61810;-83
2024/01/26 12:47:03;;;;;;;;;;;;;;;10.91;73.52;100248.21;106554;1257;76727;-83
2024/01/26 12:49:43;;;;;;;;;;;;;;;10.92;72.34;100251.05;106372;1258;68434;-83
2024/01/26 12:52:18;;;;;;;;;;;;;;;10.80;70.24;100255.09;106643;1253;74659;-82
2024/01/26 12:54:55;;;;;;;;;;;;;;;10.65;68.47;100257.61;106541;1253;62545;-83
2024/01/26 12:57:35;;;;;;;;;;;;;;;10.72;67.65;100260.13;106497;1253;61298;-83
2024/01/26 13:00:15;;;;;;;;;;;;;;;10.71;66.82;100261.43;106429;1256;76724;-83
2024/01/26 13:02:49;;;;;;;;;;;;;;;10.68;66.38;100266.21;106384;1258;71054;-84
2024/01/26 13:05:24;;;;;;;;;;;;;;;10.44;67.06;100272.06;106719;1253;73720;-83
2024/01/26 13:08:04;;;;;;;;;;;;;;;10.05;69.81;100272.95;106486;1253;61238;-82
2024/01/26 13:10:45;;;;;;;;;;;;;;;9.95;71.08;100282.06;106473;1253;62228;-82
2024/01/26 13:13:13;;;;;;;;;;;;;;;9.86;71.28;100281.87;106610;1253;75991;-83
2024/01/26 13:15:54;;;;;;;;;;;;;;;9.91;70.95;100282.24;106902;1252;70418;-82
2024/01/26 13:18:33;;;;;;;;;;;;;;;9.87;71.04;100283.34;106641;1256;73730;-82
2024/01/26 13:21:19;;;;;;;;;;;;;;;9.84;71.52;100286.67;106469;1254;61269;-82
2024/01/26 13:23:47;;;;;;;;;;;;;;;9.72;72.63;100294.64;106690;1254;61079;-82
2024/01/26 13:26:27;;;;;;;;;;;;;;;9.66;73.41;100296.95;106737;1253;77184;-83
2024/01/26 13:29:07;;;;;;;;;;;;;;;9.66;73.66;100303.87;106490;1256;69666;-82
2024/01/26 13:31:47;;;;;;;;;;;;;;;9.70;73.44;100306.21;106504;1256;73469;-82
2024/01/26 13:34:15;;;;;;;;;;;;;;;9.63;73.73;100309.67;106427;1253;61290;-82
2024/01/26 13:36:55;;;;;;;;;;;;;;;9.58;73.83;100315.80;106302;1252;61900;-83
2024/01/26 13:39:35;;;;;;;;;;;;;;;9.66;73.20;100314.52;106762;1253;76772;-83
2024/01/26 13:42:09;;;;;;;;;;;;;;;9.39;73.56;100317.02;106447;1257;69860;-83
2024/01/26 13:44:44;;;;;;;;;;;;;;;8.98;76.49;100323.95;106416;1253;73991;-82
2024/01/26 13:47:24;;;;;;;;;;;;;;;8.99;77.27;100327.01;106671;1254;62027;-82
2024/01/26 13:50:04;;;;;;;;;;;;;;;9.08;76.77;100328.92;106490;1253;61348;-81
2024/01/26 13:52:38;;;;;;;;;;;;;;;9.08;76.51;100330.66;106244;1254;75453;-82
2024/01/26 13:55:12;;;;;;;;;;;;;;;8.78;78.58;100337.61;106336;1253;70753;-81
2024/01/26 13:57:52;;;;;;;;;;;;;;;8.72;79.60;100336.68;106499;1253;75006;-83
2024/01/26 14:00:31;;;;;;;;;;;;;;;8.78;79.39;100341.05;106646;1253;63192;-83
2024/01/26 14:03:06;;;;;;;;;;;;;;;8.70;79.85;100341.46;106372;1253;61136;-84
2024/01/26 14:05:39;;;;;;;;;;;;;;;8.81;79.44;100341.48;106561;1257;75777;-83
2024/01/26 14:08:20;;;;;;;;;;;;;;;9.10;77.11;100343.27;106562;1253;70681;-83
2024/01/26 14:11:00;;;;;;;;;;;;;;;8.95;77.60;100344.82;106756;1253;73413;-83
2024/01/26 14:13:33;;;;;;;;;;;;;;;8.82;78.88;100351.14;106455;1253;62969;-81
2024/01/26 14:16:09;;;;;;;;;;;;;;;8.72;79.38;100352.63;106733;1253;61067;-82
2024/01/26 14:18:48;;;;;;;;;;;;;;;8.70;79.87;100355.19;106633;1253;77397;-82
2024/01/26 14:21:31;;;;;;;;;;;;;;;8.73;79.40;100355.70;106573;1252;69730;-82
2024/01/26 14:24:06;;;;;;;;;;;;;;;8.73;79.52;100358.09;106720;1253;74656;-82
2024/01/26 14:26:40;;;;;;;;;;;;;;;8.72;79.42;100354.54;106485;1253;61217;-83
2024/01/26 14:29:21;;;;;;;;;;;;;;;8.70;79.48;100359.55;106422;1253;61725;-83
2024/01/26 14:32:01;;;;;;;;;;;;;;;8.78;79.17;100360.49;106578;1253;77256;-84
2024/01/26 14:34:35;;;;;;;;;;;;;;;8.76;79.19;100365.67;106753;1253;70267;-83
2024/01/26 14:37:09;;;;;;;;;;;;;;;8.78;78.98;100366.05;106443;1254;72785;-83
2024/01/26 14:39:49;;;;;;;;;;;;;;;8.69;79.46;100365.55;106441;1253;62585;-83
2024/01/26 14:42:29;;;;;;;;;;;;;;;8.61;80.03;100363.13;106782;1253;61218;-83
2024/01/26 14:45:04;;;;;;;;;;;;;;;8.62;80.26;100368.31;106464;1259;76921;-84
2024/01/26 14:47:39;;;;;;;;;;;;;;;8.65;80.27;100376.86;106462;1253;70594;-83
2024/01/26 14:50:20;;;;;;;;;;;;;;;8.78;79.48;100377.38;106544;1253;72685;-83
2024/01/26 14:52:59;;;;;;;;;;;;;;;8.82;79.05;100386.23;106666;1253;62100;-82
2024/01/26 14:55:33;;;;;;;;;;;;;;;8.68;80.08;100389.19;106551;1256;62018;-83
2024/01/26 14:58:08;;;;;;;;;;;;;;;8.72;80.20;100393.71;106426;1253;76884;-83
2024/01/26 15:00:48;;;;;;;;;;;;;;;8.79;80.10;100397.83;106388;1253;70302;-83
2024/01/26 15:03:31;;;;;;;;;;;;;;;8.71;80.75;100402.44;106769;1253;76468;-83
2024/01/26 15:06:11;;;;;;;;;;;;;;;8.77;80.81;100402.23;106626;1256;61437;-83
2024/01/26 15:08:41;;;;;;;;;;;;;;;8.72;81.22;100398.79;106357;1253;61307;-83
2024/01/26 15:11:09;;;;;;;;;;;;;;;8.55;82.60;100400.20;106871;1253;77301;-83
2024/01/26 15:13:38;;;;;;;;;;;;;;;8.64;82.72;100409.16;106609;1256;70982;-84
2024/01/26 15:16:12;;;;;;;;;;;;;;;8.71;82.20;100412.77;107184;1253;72982;-82
2024/01/26 15:18:41;;;;;;;;;;;;;;;8.64;82.87;100414.25;106764;1253;62916;-83
2024/01/26 15:21:19;;;;;;;;;;;;;;;8.65;82.80;100419.25;106546;1257;63060;-82
2024/01/26 15:23:48;;;;;;;;;;;;;;;8.68;82.69;100419.98;106566;1254;74982;-83
2024/01/26 15:26:17;;;;;;;;;;;;;;;8.71;82.48;100423.61;106645;1253;70611;-83
2024/01/26 15:28:47;;;;;;;;;;;;;;;8.69;82.68;100422.27;106385;1257;74810;-84
2024/01/26 15:31:32;;;;;;;;;;;;;;;8.66;83.14;100429.71;102985;1295;599415;-77
2024/01/26 15:34:06;;;;;;;;;;;;;;;8.58;83.78;100429.14;105204;1271;60496;-77
2024/01/26 15:36:34;;;;;;;;;;;;;;;8.61;83.79;100429.70;105220;1268;60550;-77
2024/01/26 15:39:03;;;;;;;;;;;;;;;8.78;82.74;100433.09;105149;1267;72198;-77
2024/01/26 15:41:31;;;;;;;;;;;;;;;8.80;82.54;100439.63;105209;1267;69954;-77
2024/01/26 15:43:59;;;;;;;;;;;;;;;8.92;81.67;100446.25;104951;1267;115944;-77
2024/01/26 15:46:32;;;;;;;;;;;;;;;8.94;81.28;100447.95;105141;1271;61419;-76
2024/01/26 15:49:00;;;;;;;;;;;;;;;8.98;81.12;100446.59;105108;1267;62123;-76
2024/01/26 15:51:30;;;;;;;;;;;;;;;9.06;80.30;100446.73;105178;1267;74659;-76
2024/01/26 15:54:00;;;;;;;;;;;;;;;9.04;80.04;100445.13;105239;1270;70070;-76
2024/01/26 15:56:28;;;;;;;;;;;;;;;8.98;80.17;100452.10;105171;1268;72800;-76
2024/01/26 15:58:56;;;;;;;;;;;;;;;8.93;80.46;100456.94;105294;1265;60379;-77
2024/01/26 16:01:24;;;;;;;;;;;;;;;8.84;81.16;100458.01;105339;1264;60057;-76
2024/01/26 16:03:57;;;;;;;;;;;;;;;8.87;81.11;100462.27;105165;1270;75319;-76
2024/01/26 16:06:31;;;;;;;;;;;;;;;8.77;81.53;100461.09;105301;1272;69208;-76
2024/01/26 16:09:04;;;;;;;;;;;;;;;8.72;81.87;100463.63;105321;1267;74651;-77
2024/01/26 16:11:32;;;;;;;;;;;;;;;8.40;84.48;100467.54;105221;1270;61925;-77
2024/01/26 16:14:00;;;;;;;;;;;;;;;8.69;82.79;100471.09;105211;1267;60483;-77
2024/01/26 16:16:32;;;;;;;;;;;;;;;8.67;82.76;100478.15;105247;1270;75174;-77
2024/01/26 16:19:04;;;;;;;;;;;;;;;8.69;82.70;100478.21;105370;1267;70757;-77
2024/01/26 16:21:38;;;;;;;;;;;;;;;8.46;83.97;100476.39;105204;1264;74889;-76
2024/01/26 16:24:06;;;;;;;;;;;;;;;8.21;86.30;100475.83;105720;1270;60580;-78
2024/01/26 16:26:34;;;;;;;;;;;;;;;8.11;87.50;100479.83;105676;1266;60707;-78
2024/01/26 16:29:07;;;;;;;;;;;;;;;8.24;87.16;100482.96;105212;1267;74028;-78
2024/01/26 16:31:40;;;;;;;;;;;;;;;8.30;86.80;100484.58;105306;1265;68978;-77
2024/01/26 16:34:13;;;;;;;;;;;;;;;8.29;86.86;100484.25;105195;1269;74072;-78
2024/01/26 16:36:41;;;;;;;;;;;;;;;8.30;86.97;100485.78;105220;1270;61600;-77
2024/01/26 16:39:08;;;;;;;;;;;;;;;8.21;87.58;100484.23;105104;1272;60870;-78
2024/01/26 16:41:49;;;;;;;;;;;;;;;8.09;88.66;100486.69;105168;1264;72549;-78
2024/01/26 16:44:17;;;;;;;;;;;;;;;8.03;89.40;100492.27;105161;1267;70627;-78
2024/01/26 16:46:47;;;;;;;;;;;;;;;7.96;90.04;100495.29;105394;1267;75004;-77
2024/01/26 16:49:15;;;;;;;;;;;;;;;7.91;90.43;100494.66;105294;1269;63024;-78
2024/01/26 16:51:43;;;;;;;;;;;;;;;7.74;91.88;100498.00;105617;1272;59921;-76
2024/01/26 16:54:15;;;;;;;;;;;;;;;7.67;92.80;100497.89;105438;1267;74079;-77
2024/01/26 16:56:48;;;;;;;;;;;;;;;7.71;92.93;100500.38;105213;1267;69476;-78
2024/01/26 16:59:21;;;;;;;;;;;;;;;7.76;92.55;100500.36;105515;1267;74969;-77
2024/01/26 17:01:52;;;;;;;;;;;;;;;7.76;92.55;100502.70;105423;1267;59755;-77
2024/01/26 17:04:21;;;;;;;;;;;;;;;7.92;91.63;100502.02;105220;1270;59920;-78
2024/01/26 17:06:51;;;;;;;;;;;;;;;8.13;89.95;100499.72;105391;1266;75438;-78
2024/01/26 17:09:24;;;;;;;;;;;;;;;8.16;89.44;100493.70;105245;1267;68690;-78
2024/01/26 17:11:57;;;;;;;;;;;;;;;8.20;89.14;100497.38;105696;1267;74683;-77
2024/01/26 17:14:25;;;;;;;;;;;;;;;8.25;88.74;100500.66;105183;1270;60346;-77
2024/01/26 17:16:53;;;;;;;;;;;;;;;8.29;88.61;100499.92;105504;1267;60726;-78
2024/01/26 17:19:25;;;;;;;;;;;;;;;8.39;87.83;100496.99;105307;1270;75147;-78
2024/01/26 17:21:59;;;;;;;;;;;;;;;8.45;87.17;100502.73;105473;1266;70063;-78
2024/01/26 17:24:31;;;;;;;;;;;;;;;8.45;87.00;100501.31;105199;1264;74840;-77
2024/01/26 17:26:59;;;;;;;;;;;;;;;8.49;86.57;100505.15;105294;1267;61936;-77
2024/01/26 17:29:26;;;;;;;;;;;;;;;8.24;87.84;100507.83;105484;1264;61598;-77
2024/01/26 17:31:59;;;;;;;;;;;;;;;8.00;90.21;100512.37;105307;1267;74091;-77
2024/01/26 17:34:32;;;;;;;;;;;;;;;7.81;91.73;100514.60;105165;1264;70078;-78
2024/01/26 17:37:05;;;;;;;;;;;;;;;7.83;92.28;100512.88;105174;1271;74826;-78
2024/01/26 17:39:33;;;;;;;;;;;;;;;7.83;92.20;100516.96;105361;1270;61984;-78
2024/01/26 17:42:01;;;;;;;;;;;;;;;7.92;91.93;100513.49;105378;1264;61938;-78
2024/01/26 17:44:29;;;;;;;;;;;;;;;7.80;92.44;100516.06;105820;1266;75099;-78
2024/01/26 17:46:59;;;;;;;;;;;;;;;7.86;92.59;100516.33;105353;1263;70839;-77
2024/01/26 17:49:33;;;;;;;;;;;;;;;7.92;92.11;100514.53;105274;1266;74989;-77
2024/01/26 17:52:01;;;;;;;;;;;;;;;7.97;91.83;100514.73;105267;1263;60673;-78
2024/01/26 17:54:29;;;;;;;;;;;;;;;7.88;92.62;100514.88;105225;1270;59586;-78
2024/01/26 17:56:59;;;;;;;;;;;;;;;7.90;92.83;100511.52;105138;1267;75404;-78
2024/01/26 17:59:33;;;;;;;;;;;;;;;7.94;92.50;100513.79;106187;1264;69925;-77
2024/01/26 18:02:07;;;;;;;;;;;;;;;7.98;92.26;100514.85;105248;1264;74832;-78
2024/01/26 18:04:34;;;;;;;;;;;;;;;7.98;92.42;100515.12;105582;1266;60345;-78
2024/01/26 18:07:02;;;;;;;;;;;;;;;7.94;92.66;100515.04;105194;1270;60903;-78
2024/01/26 18:09:34;;;;;;;;;;;;;;;7.96;92.85;100512.05;105317;1267;75145;-78
2024/01/26 18:12:06;;;;;;;;;;;;;;;7.96;92.80;100511.02;105218;1264;69442;-78
2024/01/26 18:14:39;;;;;;;;;;;;;;;7.95;93.16;100516.02;105243;1267;73730;-78
2024/01/26 18:17:07;;;;;;;;;;;;;;;7.89;93.53;100518.05;105093;1266;63031;-77
2024/01/26 18:19:35;;;;;;;;;;;;;;;7.86;93.97;100515.24;105195;1272;60589;-78
2024/01/26 18:22:07;;;;;;;;;;;;;;;7.80;94.86;100515.95;105407;1267;72820;-78
2024/01/26 18:24:40;;;;;;;;;;;;;;;7.77;95.12;100513.91;105431;1264;70647;-79
2024/01/26 18:27:13;;;;;;;;;;;;;;;7.79;95.16;100511.74;106106;1267;74448;-78
2024/01/26 18:29:40;;;;;;;;;;;;;;;7.73;95.63;100512.03;105238;1266;61416;-78
2024/01/26 18:32:08;;;;;;;;;;;;;;;7.72;95.89;100511.05;105214;1272;61626;-78
2024/01/26 18:34:40;;;;;;;;;;;;;;;7.79;95.62;100516.92;105269;1267;73376;-78
2024/01/26 18:37:14;;;;;;;;;;;;;;;7.81;95.60;100515.73;105805;1270;70770;-78
2024/01/26 18:39:48;;;;;;;;;;;;;;;7.79;95.73;100516.80;105413;1272;74731;-78
2024/01/26 18:42:15;;;;;;;;;;;;;;;7.81;95.64;100515.85;105445;1267;60378;-78
2024/01/26 18:44:48;;;;;;;;;;;;;;;7.88;95.24;100512.86;105258;1270;60912;-78
2024/01/26 18:47:22;;;;;;;;;;;;;;;7.93;94.83;100507.58;105481;1270;75128;-78
2024/01/26 18:49:49;;;;;;;;;;;;;;;7.96;94.68;100506.23;105484;1266;71099;-78
2024/01/26 18:52:23;;;;;;;;;;;;;;;8.04;94.13;100502.77;105227;1272;73612;-78
2024/01/26 18:54:51;;;;;;;;;;;;;;;8.07;93.73;100500.87;105303;1267;61814;-78
2024/01/26 18:57:26;;;;;;;;;;;;;;;8.09;93.65;100500.34;105233;1266;62045;-78
2024/01/26 18:59:57;;;;;;;;;;;;;;;8.07;93.71;100498.20;105320;1264;74086;-78
2024/01/26 19:02:25;;;;;;;;;;;;;;;8.06;93.87;100492.65;105359;1263;69600;-78
2024/01/26 19:04:53;;;;;;;;;;;;;;;8.02;94.36;100495.29;105227;1266;73088;-77
2024/01/26 19:07:27;;;;;;;;;;;;;;;7.99;94.68;100498.86;105251;1269;60413;-77
2024/01/26 19:10:01;;;;;;;;;;;;;;;8.01;94.57;100499.15;105271;1264;62116;-77
2024/01/26 19:12:29;;;;;;;;;;;;;;;7.99;94.58;100498.38;105579;1266;75187;-77
2024/01/26 19:15:05;;;;;;;;;;;;;;;7.90;95.21;100496.23;105175;1263;69635;-77
2024/01/26 19:17:33;;;;;;;;;;;;;;;7.88;95.77;100496.48;105342;1272;75091;-77
2024/01/26 19:20:07;;;;;;;;;;;;;;;7.91;95.59;100502.44;105801;1265;59985;-77
2024/01/26 19:22:35;;;;;;;;;;;;;;;7.92;95.72;100499.84;105312;1264;61158;-77
2024/01/26 19:25:09;;;;;;;;;;;;;;;7.93;95.51;100497.13;105330;1270;75166;-77
2024/01/26 19:27:37;;;;;;;;;;;;;;;8.00;95.23;100497.99;105257;1266;69326;-77
2024/01/26 19:30:11;;;;;;;;;;;;;;;8.09;94.48;100496.53;105273;1264;74545;-78
2024/01/26 19:32:39;;;;;;;;;;;;;;;8.08;94.56;100502.02;105771;1263;61943;-77
2024/01/26 19:35:13;;;;;;;;;;;;;;;8.02;94.97;100504.38;106013;1257;61665;-78
2024/01/26 19:37:46;;;;;;;;;;;;;;;7.98;95.52;100510.49;105965;1258;74527;-78
2024/01/26 19:40:20;;;;;;;;;;;;;;;7.93;95.78;100511.16;105829;1257;69651;-78
2024/01/26 19:42:54;;;;;;;;;;;;;;;7.92;96.03;100511.98;105703;1261;73757;-77
2024/01/26 19:45:28;;;;;;;;;;;;;;;7.86;96.53;100509.31;105791;1257;61827;-77
2024/01/26 19:48:02;;;;;;;;;;;;;;;7.87;96.84;100511.77;105701;1258;61890;-77
2024/01/26 19:50:36;;;;;;;;;;;;;;;7.90;96.80;100507.33;105994;1260;75896;-77
2024/01/26 19:53:04;;;;;;;;;;;;;;;7.93;96.38;100511.34;105764;1266;69272;-78
2024/01/26 19:55:38;;;;;;;;;;;;;;;7.98;96.17;100514.58;105814;1257;74796;-78
2024/01/26 19:58:05;;;;;;;;;;;;;;;8.01;95.94;100514.38;105898;1260;60586;-78
2024/01/26 20:00:34;;;;;;;;;;;;;;;8.04;95.93;100518.15;105609;1264;61146;-78
2024/01/26 20:03:11;;;;;;;;;;;;;;;8.09;95.60;100518.73;106053;1263;75114;-78
2024/01/26 20:05:45;;;;;;;;;;;;;;;8.11;95.43;100518.81;106096;1257;72531;-78
2024/01/26 20:08:20;;;;;;;;;;;;;;;8.22;94.68;100518.61;105926;1257;74811;-78
2024/01/26 20:10:48;;;;;;;;;;;;;;;8.25;94.27;100515.96;105736;1260;63304;-78
2024/01/26 20:13:22;;;;;;;;;;;;;;;8.20;94.60;100516.48;105683;1258;60738;-78
2024/01/26 20:15:56;;;;;;;;;;;;;;;8.11;95.32;100518.80;105679;1262;75306;-78
2024/01/26 20:18:30;;;;;;;;;;;;;;;8.07;95.62;100516.12;105914;1262;69794;-78
2024/01/26 20:21:06;;;;;;;;;;;;;;;8.00;96.22;100516.44;105968;1260;73881;-78
2024/01/26 20:23:40;;;;;;;;;;;;;;;7.92;96.81;100513.83;105708;1263;60511;-78
2024/01/26 20:26:15;;;;;;;;;;;;;;;7.83;97.57;100509.84;105971;1257;60791;-78
2024/01/26 20:28:49;;;;;;;;;;;;;;;7.82;97.84;100511.27;105674;1257;74065;-78
2024/01/26 20:31:16;;;;;;;;;;;;;;;7.83;97.75;100507.98;105743;1257;71087;-78
2024/01/26 20:33:50;;;;;;;;;;;;;;;7.89;97.25;100505.36;105814;1260;74858;-78
2024/01/26 20:36:25;;;;;;;;;;;;;;;7.99;96.56;100506.15;106016;1257;60623;-78
2024/01/26 20:38:58;;;;;;;;;;;;;;;8.13;95.70;100503.58;105916;1259;62458;-78
2024/01/26 20:41:28;;;;;;;;;;;;;;;8.32;94.01;100502.29;105764;1259;74798;-78
2024/01/26 20:44:02;;;;;;;;;;;;;;;8.37;93.42;100502.38;105813;1259;67233;-78
2024/01/26 20:46:36;;;;;;;;;;;;;;;8.22;94.41;100501.23;106016;1256;73260;-78
2024/01/26 20:49:10;;;;;;;;;;;;;;;8.21;94.53;100498.95;106089;1256;60562;-78
2024/01/26 20:51:44;;;;;;;;;;;;;;;8.21;94.57;100498.63;106141;1253;60724;-78
2024/01/26 20:54:19;;;;;;;;;;;;;;;8.12;95.29;100506.84;105944;1254;72671;-78
2024/01/26 20:56:53;;;;;;;;;;;;;;;8.21;94.93;100504.13;106178;1253;69474;-78
2024/01/26 20:59:26;;;;;;;;;;;;;;;8.14;95.32;100501.89;105796;1259;75018;-78
2024/01/26 21:01:56;;;;;;;;;;;;;;;8.12;95.72;100505.90;106216;1253;61418;-78
2024/01/26 21:04:30;;;;;;;;;;;;;;;8.12;95.90;100505.14;106004;1259;61008;-78
2024/01/26 21:07:04;;;;;;;;;;;;;;;8.17;95.86;100507.63;106055;1257;73899;-78
2024/01/26 21:09:39;;;;;;;;;;;;;;;8.15;95.97;100511.65;106272;1259;68361;-77
2024/01/26 21:12:09;;;;;;;;;;;;;;;8.12;96.49;100513.54;106126;1254;73282;-77
2024/01/26 21:14:43;;;;;;;;;;;;;;;8.14;96.58;100514.04;105970;1254;60488;-77